sensor_id;sensor_type;location;lat;lon;timestamp;pressure;altitude;pressure_sealevel;temperature;humidity
86100;BME280;76724;47.496;19.064;2024-03-02T00:00:05;99845.69;;;22.26;37.03
86100;BME280;76724;47.496;19.064;2024-03-02T00:00:49;99839.47;;;22.26;37.05
86100;BME280;76724;47.496;19.064;2024-03-02T00:01:25;99844.88;;;22.26;36.48
86100;BME280;76724;47.496;19.064;2024-03-02T00:01:59;99846.50;;;22.27;36.44
86100;BME280;76724;47.496;19.064;2024-03-02T00:02:39;99847.31;;;22.27;37.15
86100;BME280;76724;47.496;19.064;2024-03-02T00:03:13;99848.38;;;22.26;37.27
86100;BME280;76724;47.496;19.064;2024-03-02T00:03:48;99850.00;;;22.27;36.92
86100;BME280;76724;47.496;19.064;2024-03-02T00:04:22;99845.69;;;22.26;36.88
86100;BME280;76724;47.496;19.064;2024-03-02T00:04:56;99846.50;;;22.27;36.70
86100;BME280;76724;47.496;19.064;2024-03-02T00:05:31;99845.69;;;22.26;36.62
86100;BME280;76724;47.496;19.064;2024-03-02T00:06:06;99838.66;;;22.25;37.14
86100;BME280;76724;47.496;19.064;2024-03-02T00:06:41;99843.25;;;22.25;37.25
86100;BME280;76724;47.496;19.064;2024-03-02T00:07:15;99840.28;;;22.26;37.24
86100;BME280;76724;47.496;19.064;2024-03-02T00:07:55;99844.88;;;22.26;36.97
86100;BME280;76724;47.496;19.064;2024-03-02T00:08:32;99840.28;;;22.26;36.97
86100;BME280;76724;47.496;19.064;2024-03-02T00:09:09;99834.06;;;22.26;36.52
86100;BME280;76724;47.496;19.064;2024-03-02T00:09:43;99833.25;;;22.25;36.45
86100;BME280;76724;47.496;19.064;2024-03-02T00:10:20;99837.59;;;22.26;37.03
86100;BME280;76724;47.496;19.064;2024-03-02T00:10:58;99830.56;;;22.25;36.41
86100;BME280;76724;47.496;19.064;2024-03-02T00:11:35;99831.63;;;22.24;36.69
86100;BME280;76724;47.496;19.064;2024-03-02T00:12:15;99836.78;;;22.26;37.12
86100;BME280;76724;47.496;19.064;2024-03-02T00:12:50;99827.06;;;22.25;37.20
86100;BME280;76724;47.496;19.064;2024-03-02T00:13:24;99829.75;;;22.25;36.70
86100;BME280;76724;47.496;19.064;2024-03-02T00:13:59;99825.16;;;22.25;36.96
86100;BME280;76724;47.496;19.064;2024-03-02T00:14:34;99827.84;;;22.25;37.16
86100;BME280;76724;47.496;19.064;2024-03-02T00:16:04;99828.66;;;22.26;36.89
86100;BME280;76724;47.496;19.064;2024-03-02T00:16:39;99824.06;;;22.26;36.48
86100;BME280;76724;47.496;19.064;2024-03-02T00:17:24;99823.28;;;22.26;36.40
86100;BME280;76724;47.496;19.064;2024-03-02T00:17:58;99817.59;;;22.27;36.78
86100;BME280;76724;47.496;19.064;2024-03-02T00:18:35;99820.31;;;22.27;36.93
86100;BME280;76724;47.496;19.064;2024-03-02T00:19:11;99820.56;;;22.26;36.56
86100;BME280;76724;47.496;19.064;2024-03-02T00:19:45;99814.34;;;22.25;37.02
86100;BME280;76724;47.496;19.064;2024-03-02T00:20:22;99810.28;;;22.22;37.05
86100;BME280;76724;47.496;19.064;2024-03-02T00:20:57;99820.56;;;22.26;36.98
86100;BME280;76724;47.496;19.064;2024-03-02T00:21:33;99822.47;;;22.25;36.80
86100;BME280;76724;47.496;19.064;2024-03-02T00:22:07;99822.47;;;22.25;36.27
86100;BME280;76724;47.496;19.064;2024-03-02T00:22:42;99815.44;;;22.24;36.86
86100;BME280;76724;47.496;19.064;2024-03-02T00:23:18;99823.28;;;22.26;37.16
86100;BME280;76724;47.496;19.064;2024-03-02T00:23:53;99817.88;;;22.26;36.32
86100;BME280;76724;47.496;19.064;2024-03-02T00:24:33;99822.47;;;22.25;36.33
86100;BME280;76724;47.496;19.064;2024-03-02T00:25:08;99815.44;;;22.24;36.42
86100;BME280;76724;47.496;19.064;2024-03-02T00:25:47;99824.06;;;22.26;36.36
86100;BME280;76724;47.496;19.064;2024-03-02T00:26:22;99817.06;;;22.25;36.92
86100;BME280;76724;47.496;19.064;2024-03-02T00:26:57;99816.25;;;22.25;36.78
86100;BME280;76724;47.496;19.064;2024-03-02T00:27:31;99819.75;;;22.25;36.90
86100;BME280;76724;47.496;19.064;2024-03-02T00:28:05;99822.47;;;22.25;37.05
86100;BME280;76724;47.496;19.064;2024-03-02T00:28:44;99818.69;;;22.26;37.15
86100;BME280;76724;47.496;19.064;2024-03-02T00:29:19;99822.47;;;22.25;36.70
86100;BME280;76724;47.496;19.064;2024-03-02T00:29:55;99827.06;;;22.25;36.59
86100;BME280;76724;47.496;19.064;2024-03-02T00:31:23;99820.00;;;22.23;36.84
86100;BME280;76724;47.496;19.064;2024-03-02T00:31:57;99823.28;;;22.26;36.64
86100;BME280;76724;47.496;19.064;2024-03-02T00:32:33;99825.16;;;22.25;37.06
86100;BME280;76724;47.496;19.064;2024-03-02T00:33:08;99823.28;;;22.26;36.55
86100;BME280;76724;47.496;19.064;2024-03-02T00:33:44;99821.88;;;22.23;36.81
86100;BME280;76724;47.496;19.064;2024-03-02T00:34:19;99832.19;;;22.26;36.70
86100;BME280;76724;47.496;19.064;2024-03-02T00:34:53;99822.47;;;22.25;36.45
86100;BME280;76724;47.496;19.064;2024-03-02T00:35:27;99822.47;;;22.25;36.63
86100;BME280;76724;47.496;19.064;2024-03-02T00:36:02;99824.34;;;22.25;37.29
86100;BME280;76724;47.496;19.064;2024-03-02T00:36:40;99826.78;;;22.26;36.77
86100;BME280;76724;47.496;19.064;2024-03-02T00:37:15;99833.25;;;22.25;36.64
86100;BME280;76724;47.496;19.064;2024-03-02T00:37:49;99834.88;;;22.26;37.21
86100;BME280;76724;47.496;19.064;2024-03-02T00:38:24;99824.59;;;22.23;36.58
86100;BME280;76724;47.496;19.064;2024-03-02T00:38:59;99838.66;;;22.25;37.05
86100;BME280;76724;47.496;19.064;2024-03-02T00:39:33;99832.19;;;22.26;36.33
86100;BME280;76724;47.496;19.064;2024-03-02T00:40:08;99832.44;;;22.25;36.38
86100;BME280;76724;47.496;19.064;2024-03-02T00:40:43;99831.38;;;22.26;36.61
86100;BME280;76724;47.496;19.064;2024-03-02T00:41:23;99834.88;;;22.26;36.82
86100;BME280;76724;47.496;19.064;2024-03-02T00:41:58;99831.09;;;22.27;37.22
86100;BME280;76724;47.496;19.064;2024-03-02T00:42:32;99837.84;;;22.25;36.25
86100;BME280;76724;47.496;19.064;2024-03-02T00:43:38;99828.41;;;22.27;36.82
86100;BME280;76724;47.496;19.064;2024-03-02T00:44:15;99824.34;;;22.25;37.05
86100;BME280;76724;47.496;19.064;2024-03-02T00:44:49;99826.25;;;22.24;37.17
86100;BME280;76724;47.496;19.064;2024-03-02T00:45:25;99824.59;;;22.23;36.50
86100;BME280;76724;47.496;19.064;2024-03-02T00:46:00;99825.16;;;22.25;36.58
86100;BME280;76724;47.496;19.064;2024-03-02T00:46:36;99830.56;;;22.25;37.22
86100;BME280;76724;47.496;19.064;2024-03-02T00:47:10;99826.78;;;22.26;36.60
86100;BME280;76724;47.496;19.064;2024-03-02T00:47:45;99829.47;;;22.26;36.61
86100;BME280;76724;47.496;19.064;2024-03-02T00:48:19;99826.78;;;22.26;36.63
86100;BME280;76724;47.496;19.064;2024-03-02T00:48:56;99825.69;;;22.27;36.95
86100;BME280;76724;47.496;19.064;2024-03-02T00:49:31;99834.06;;;22.26;36.22
86100;BME280;76724;47.496;19.064;2024-03-02T00:50:05;99838.66;;;22.25;36.20
86100;BME280;76724;47.496;19.064;2024-03-02T12:58:18;99912.50;;;20.89;39.63
86100;BME280;76724;47.496;19.064;2024-03-02T12:58:58;99920.06;;;20.92;39.38
86100;BME280;76724;47.496;19.064;2024-03-02T12:59:40;99922.53;;;20.94;39.06
86100;BME280;76724;47.496;19.064;2024-03-02T13:00:21;99915.81;;;20.96;39.00
86100;BME280;76724;47.496;19.064;2024-03-02T13:01:07;99914.47;;;20.99;39.24
86100;BME280;76724;47.496;19.064;2024-03-02T13:01:56;99916.22;;;21.05;39.35
86100;BME280;76724;47.496;19.064;2024-03-02T13:02:31;99921.09;;;21.08;39.42
86100;BME280;76724;47.496;19.064;2024-03-02T13:03:06;99924.91;;;21.12;38.88
86100;BME280;76724;47.496;19.064;2024-03-02T13:03:41;99916.56;;;21.13;38.54
86100;BME280;76724;47.496;19.064;2024-03-02T13:04:15;99924.97;;;21.17;39.20
86100;BME280;76724;47.496;19.064;2024-03-02T13:04:53;99912.06;;;21.19;39.27
86100;BME280;76724;47.496;19.064;2024-03-02T13:05:31;99909.69;;;21.23;39.03
86100;BME280;76724;47.496;19.064;2024-03-02T13:06:06;99917.25;;;21.26;38.98
86100;BME280;76724;47.496;19.064;2024-03-02T13:06:41;99914.34;;;21.27;39.09
86100;BME280;76724;47.496;19.064;2024-03-02T13:07:15;99911.97;;;21.31;38.77
86100;BME280;76724;47.496;19.064;2024-03-02T13:07:50;99917.09;;;21.32;38.82
86100;BME280;76724;47.496;19.064;2024-03-02T13:08:24;99914.16;;;21.34;38.79
86100;BME280;76724;47.496;19.064;2024-03-02T13:08:58;99916.09;;;21.38;38.28
86100;BME280;76724;47.496;19.064;2024-03-02T13:09:32;99908.56;;;21.40;38.06
86100;BME280;76724;47.496;19.064;2024-03-02T13:10:07;99912.63;;;21.43;38.81
86100;BME280;76724;47.496;19.064;2024-03-02T13:10:43;99915.91;;;21.45;38.54
86100;BME280;76724;47.496;19.064;2024-03-02T13:11:17;99913.78;;;21.47;38.45
86100;BME280;76724;47.496;19.064;2024-03-02T13:11:52;99908.94;;;21.49;38.48
86100;BME280;76724;47.496;19.064;2024-03-02T13:12:26;99915.72;;;21.52;38.58
86100;BME280;76724;47.496;19.064;2024-03-02T13:13:01;99913.81;;;21.52;37.87
86100;BME280;76724;47.496;19.064;2024-03-02T13:13:35;99918.16;;;21.53;38.12
86100;BME280;76724;47.496;19.064;2024-03-02T13:14:11;99926.78;;;21.55;38.34
86100;BME280;76724;47.496;19.064;2024-03-02T13:14:48;99914.69;;;21.58;38.13
86100;BME280;76724;47.496;19.064;2024-03-02T13:15:23;99915.50;;;21.58;37.46
86100;BME280;76724;47.496;19.064;2024-03-02T13:15:58;99916.06;;;21.60;37.76
86100;BME280;76724;47.496;19.064;2024-03-02T13:16:38;99910.44;;;21.62;38.43
86100;BME280;76724;47.496;19.064;2024-03-02T13:17:13;99910.44;;;21.62;38.02
86100;BME280;76724;47.496;19.064;2024-03-02T13:17:48;99912.31;;;21.61;38.16
86100;BME280;76724;47.496;19.064;2024-03-02T13:18:23;99913.69;;;21.64;38.11
86100;BME280;76724;47.496;19.064;2024-03-02T13:18:57;99918.59;;;21.67;37.75
86100;BME280;76724;47.496;19.064;2024-03-02T13:19:32;99914.81;;;21.68;37.85
86100;BME280;76724;47.496;19.064;2024-03-02T13:20:06;99909.16;;;21.69;38.26
86100;BME280;76724;47.496;19.064;2024-03-02T13:20:44;99914.28;;;21.71;37.74
86100;BME280;76724;47.496;19.064;2024-03-02T13:21:19;99909.69;;;21.72;37.88
86100;BME280;76724;47.496;19.064;2024-03-02T13:21:53;99906.78;;;21.73;38.17
86100;BME280;76724;47.496;19.064;2024-03-02T13:22:28;99915.41;;;21.75;37.56
86100;BME280;76724;47.496;19.064;2024-03-02T13:23:02;99914.34;;;21.76;37.77
86100;BME280;76724;47.496;19.064;2024-03-02T13:23:36;99918.13;;;21.75;37.93
86100;BME280;76724;47.496;19.064;2024-03-02T13:24:10;99918.66;;;21.77;38.01
86100;BME280;76724;47.496;19.064;2024-03-02T13:24:45;99913.28;;;21.77;37.89
86100;BME280;76724;47.496;19.064;2024-03-02T13:25:19;99909.50;;;21.78;37.90
86100;BME280;76724;47.496;19.064;2024-03-02T13:25:53;99911.16;;;21.79;37.60
86100;BME280;76724;47.496;19.064;2024-03-02T13:26:27;99910.06;;;21.80;37.42
86100;BME280;76724;47.496;19.064;2024-03-02T13:27:02;99911.69;;;21.81;37.86
86100;BME280;76724;47.496;19.064;2024-03-02T13:27:38;99909.81;;;21.82;37.42
86100;BME280;76724;47.496;19.064;2024-03-02T13:28:12;99911.69;;;21.81;36.99
86100;BME280;76724;47.496;19.064;2024-03-02T13:28:46;99914.41;;;21.81;37.64
86100;BME280;76724;47.496;19.064;2024-03-02T13:29:21;99912.25;;;21.83;37.31
86100;BME280;76724;47.496;19.064;2024-03-02T13:29:55;99909.53;;;21.83;37.22
86100;BME280;76724;47.496;19.064;2024-03-02T13:30:30;99912.00;;;21.85;37.64
86100;BME280;76724;47.496;19.064;2024-03-02T13:31:04;99910.94;;;21.86;37.04
86100;BME280;76724;47.496;19.064;2024-03-02T13:31:39;99911.75;;;21.86;37.17
86100;BME280;76724;47.496;19.064;2024-03-02T13:32:16;99914.44;;;21.86;37.15
86100;BME280;76724;47.496;19.064;2024-03-02T13:32:51;99916.06;;;21.87;37.81
86100;BME280;76724;47.496;19.064;2024-03-02T13:33:25;99914.44;;;21.86;37.17
86100;BME280;76724;47.496;19.064;2024-03-02T13:34:00;99908.78;;;21.88;37.71
86100;BME280;76724;47.496;19.064;2024-03-02T13:34:34;99914.19;;;21.88;37.17
86100;BME280;76724;47.496;19.064;2024-03-02T13:35:08;99917.69;;;21.88;37.22
86100;BME280;76724;47.496;19.064;2024-03-02T13:35:45;99915.81;;;21.89;37.07
86100;BME280;76724;47.496;19.064;2024-03-02T13:36:19;99917.19;;;21.91;37.34
86100;BME280;76724;47.496;19.064;2024-03-02T13:36:53;99920.72;;;21.92;37.32
86100;BME280;76724;47.496;19.064;2024-03-02T13:37:28;99911.81;;;21.91;36.83
86100;BME280;76724;47.496;19.064;2024-03-02T13:38:02;99918.28;;;21.90;37.75
86100;BME280;76724;47.496;19.064;2024-03-02T13:38:36;99919.91;;;21.91;37.54
86100;BME280;76724;47.496;19.064;2024-03-02T13:39:11;99916.38;;;21.91;37.58
86100;BME280;76724;47.496;19.064;2024-03-02T13:39:49;99914.50;;;21.91;37.14
86100;BME280;76724;47.496;19.064;2024-03-02T13:40:24;99921.53;;;21.92;37.24
86100;BME280;76724;47.496;19.064;2024-03-02T13:40:58;99922.34;;;21.93;36.90
86100;BME280;76724;47.496;19.064;2024-03-02T13:41:35;99916.13;;;21.92;36.85
86100;BME280;76724;47.496;19.064;2024-03-02T13:42:10;99920.72;;;21.92;37.23
86100;BME280;76724;47.496;19.064;2024-03-02T13:42:45;99916.13;;;21.92;36.94
86100;BME280;76724;47.496;19.064;2024-03-02T13:43:20;99921.53;;;21.92;37.69
86100;BME280;76724;47.496;19.064;2024-03-02T13:43:54;99922.34;;;21.93;37.48
86100;BME280;76724;47.496;19.064;2024-03-02T13:44:28;99923.16;;;21.93;37.42
86100;BME280;76724;47.496;19.064;2024-03-02T13:45:03;99913.16;;;21.94;36.80
86100;BME280;76724;47.496;19.064;2024-03-02T13:45:39;99921.25;;;21.94;37.14
86100;BME280;76724;47.496;19.064;2024-03-02T13:46:13;99916.13;;;21.92;37.20
86100;BME280;76724;47.496;19.064;2024-03-02T13:46:48;99919.63;;;21.93;36.79
86100;BME280;76724;47.496;19.064;2024-03-02T13:47:22;99918.56;;;21.94;36.96
86100;BME280;76724;47.496;19.064;2024-03-02T13:47:56;99922.06;;;21.94;36.80
86100;BME280;76724;47.496;19.064;2024-03-02T13:48:30;99922.88;;;21.95;37.13
86100;BME280;76724;47.496;19.064;2024-03-02T13:49:05;99919.38;;;21.94;37.44
86100;BME280;76724;47.496;19.064;2024-03-02T13:49:39;99921.03;;;21.95;37.45
86100;BME280;76724;47.496;19.064;2024-03-02T13:50:17;99921.03;;;21.95;37.67
86100;BME280;76724;47.496;19.064;2024-03-02T13:50:52;99925.34;;;21.96;36.73
86100;BME280;76724;47.496;19.064;2024-03-02T13:51:29;99915.63;;;21.95;37.25
86100;BME280;76724;47.496;19.064;2024-03-02T13:52:04;99921.56;;;21.98;37.12
86100;BME280;76724;47.496;19.064;2024-03-02T13:52:44;99917.25;;;21.96;36.79
86100;BME280;76724;47.496;19.064;2024-03-02T13:53:19;99917.25;;;21.96;37.39
86100;BME280;76724;47.496;19.064;2024-03-02T13:53:53;99922.88;;;21.95;37.16
86100;BME280;76724;47.496;19.064;2024-03-02T13:54:27;99921.03;;;21.95;36.87
86100;BME280;76724;47.496;19.064;2024-03-02T13:55:02;99921.03;;;21.95;36.72
86100;BME280;76724;47.496;19.064;2024-03-02T13:55:37;99916.44;;;21.96;36.87
86100;BME280;76724;47.496;19.064;2024-03-02T13:56:11;99924.53;;;21.96;37.08
86100;BME280;76724;47.496;19.064;2024-03-02T13:56:45;99925.59;;;21.95;36.71
86100;BME280;76724;47.496;19.064;2024-03-02T13:57:20;99921.03;;;21.95;37.35
86100;BME280;76724;47.496;19.064;2024-03-02T13:58:00;99923.72;;;21.95;37.03
86100;BME280;76724;47.496;19.064;2024-03-02T13:58:34;99921.84;;;21.96;36.79
86100;BME280;76724;47.496;19.064;2024-03-02T13:59:08;99926.44;;;21.95;37.31
86100;BME280;76724;47.496;19.064;2024-03-02T13:59:43;99925.34;;;21.96;37.34
86100;BME280;76724;47.496;19.064;2024-03-02T14:00:18;99921.03;;;21.95;37.31
86100;BME280;76724;47.496;19.064;2024-03-02T14:00:53;99921.03;;;21.95;36.90
86100;BME280;76724;47.496;19.064;2024-03-02T14:01:28;99923.47;;;21.97;37.00
86100;BME280;76724;47.496;19.064;2024-03-02T14:02:03;99926.97;;;21.98;37.11
86100;BME280;76724;47.496;19.064;2024-03-02T14:02:39;99923.47;;;21.97;36.99
86100;BME280;76724;47.496;19.064;2024-03-02T14:03:13;99926.97;;;21.98;37.28
86100;BME280;76724;47.496;19.064;2024-03-02T14:03:48;99919.94;;;21.96;37.64
86100;BME280;76724;47.496;19.064;2024-03-02T14:04:23;99930.50;;;21.98;36.87
86100;BME280;76724;47.496;19.064;2024-03-02T14:04:57;99926.97;;;21.98;36.86
86100;BME280;76724;47.496;19.064;2024-03-02T14:05:32;99921.56;;;21.98;37.33
86100;BME280;76724;47.496;19.064;2024-03-02T14:06:07;99928.88;;;21.97;37.03
86100;BME280;76724;47.496;19.064;2024-03-02T14:06:43;99924.28;;;21.98;37.15
86100;BME280;76724;47.496;19.064;2024-03-02T14:07:17;99926.16;;;21.97;36.69
86100;BME280;76724;47.496;19.064;2024-03-02T14:07:51;99932.38;;;21.98;36.83
86100;BME280;76724;47.496;19.064;2024-03-02T14:08:26;99924.28;;;21.98;36.94
86100;BME280;76724;47.496;19.064;2024-03-02T14:09:00;99926.97;;;21.98;36.67
86100;BME280;76724;47.496;19.064;2024-03-02T14:09:35;99924.28;;;21.98;37.47
86100;BME280;76724;47.496;19.064;2024-03-02T14:10:10;99928.06;;;21.96;36.86
86100;BME280;76724;47.496;19.064;2024-03-02T14:10:44;99926.97;;;21.98;37.02
86100;BME280;76724;47.496;19.064;2024-03-02T14:11:18;99924.00;;;21.99;37.19
86100;BME280;76724;47.496;19.064;2024-03-02T14:11:54;99930.50;;;21.98;37.08
86100;BME280;76724;47.496;19.064;2024-03-02T14:12:28;99930.50;;;21.98;36.85
86100;BME280;76724;47.496;19.064;2024-03-02T14:13:02;99929.94;;;21.96;36.92
86100;BME280;76724;47.496;19.064;2024-03-02T14:13:36;99929.69;;;21.98;37.28
86100;BME280;76724;47.496;19.064;2024-03-02T14:14:11;99929.69;;;21.98;37.02
86100;BME280;76724;47.496;19.064;2024-03-02T14:14:45;99926.97;;;21.98;37.46
86100;BME280;76724;47.496;19.064;2024-03-02T14:15:19;99935.88;;;21.98;36.93
86100;BME280;76724;47.496;19.064;2024-03-02T14:15:55;99938.84;;;21.96;37.55
86100;BME280;76724;47.496;19.064;2024-03-02T14:16:29;99928.06;;;21.96;36.67
86100;BME280;76724;47.496;19.064;2024-03-02T14:17:03;99932.63;;;21.96;37.28
86100;BME280;76724;47.496;19.064;2024-03-02T14:17:40;99932.38;;;21.98;37.37
86100;BME280;76724;47.496;19.064;2024-03-02T14:18:14;99939.66;;;21.97;36.73
86100;BME280;76724;47.496;19.064;2024-03-02T14:18:48;99928.88;;;21.97;37.08
86100;BME280;76724;47.496;19.064;2024-03-02T14:19:23;99940.75;;;21.96;37.09
86100;BME280;76724;47.496;19.064;2024-03-02T14:19:59;99942.63;;;21.95;37.23
86100;BME280;76724;47.496;19.064;2024-03-02T14:20:33;99943.19;;;21.98;37.03
86100;BME280;76724;47.496;19.064;2024-03-02T14:21:08;99935.06;;;21.98;36.73
86100;BME280;76724;47.496;19.064;2024-03-02T14:21:42;99938.03;;;21.96;37.08
86100;BME280;76724;47.496;19.064;2024-03-02T14:22:16;99938.84;;;21.96;36.54
86100;BME280;76724;47.496;19.064;2024-03-02T14:22:51;99941.56;;;21.96;37.56
86100;BME280;76724;47.496;19.064;2024-03-02T14:23:25;99936.97;;;21.97;37.09
86100;BME280;76724;47.496;19.064;2024-03-02T14:24:00;99938.84;;;21.96;36.86
86100;BME280;76724;47.496;19.064;2024-03-02T14:24:34;99942.34;;;21.97;37.24
86100;BME280;76724;47.496;19.064;2024-03-02T14:25:08;99938.84;;;21.96;37.29
86100;BME280;76724;47.496;19.064;2024-03-02T14:25:42;99946.13;;;21.96;37.31
86100;BME280;76724;47.496;19.064;2024-03-02T14:26:17;99941.56;;;21.96;36.91
86100;BME280;76724;47.496;19.064;2024-03-02T14:26:52;99942.34;;;21.97;36.81
86100;BME280;76724;47.496;19.064;2024-03-02T14:27:35;99938.84;;;21.96;36.62
86100;BME280;76724;47.496;19.064;2024-03-02T14:28:30;99931.81;;;21.95;36.90
86100;BME280;76724;47.496;19.064;2024-03-02T14:29:23;99941.56;;;21.96;36.64
86100;BME280;76724;47.496;19.064;2024-03-02T14:29:58;99944.25;;;21.96;36.82
86100;BME280;76724;47.496;19.064;2024-03-02T14:30:33;99938.84;;;21.96;36.89
86100;BME280;76724;47.496;19.064;2024-03-02T14:31:07;99938.84;;;21.96;37.42
86100;BME280;76724;47.496;19.064;2024-03-02T14:31:42;99938.84;;;21.96;36.78
86100;BME280;76724;47.496;19.064;2024-03-02T14:32:16;99941.56;;;21.96;37.59
86100;BME280;76724;47.496;19.064;2024-03-02T14:32:50;99939.66;;;21.97;36.88
86100;BME280;76724;47.496;19.064;2024-03-02T14:33:25;99935.34;;;21.96;37.26
86100;BME280;76724;47.496;19.064;2024-03-02T14:33:59;99943.19;;;21.98;37.15
86100;BME280;76724;47.496;19.064;2024-03-02T14:34:34;99940.75;;;21.96;37.35
86100;BME280;76724;47.496;19.064;2024-03-02T14:35:10;99938.03;;;21.96;37.14
86100;BME280;76724;47.496;19.064;2024-03-02T14:35:45;99937.22;;;21.95;37.59
86100;BME280;76724;47.496;19.064;2024-03-02T14:36:19;99935.06;;;21.98;36.88
86100;BME280;76724;47.496;19.064;2024-03-02T14:36:54;99933.44;;;21.96;37.41
86100;BME280;76724;47.496;19.064;2024-03-02T14:37:29;99940.75;;;21.96;36.84
86100;BME280;76724;47.496;19.064;2024-03-02T14:38:03;99934.25;;;21.97;37.36
86100;BME280;76724;47.496;19.064;2024-03-02T14:38:38;99932.63;;;21.96;37.49
86100;BME280;76724;47.496;19.064;2024-03-02T14:39:13;99933.44;;;21.96;36.61
86100;BME280;76724;47.496;19.064;2024-03-02T14:39:47;99928.06;;;21.96;37.43
86100;BME280;76724;47.496;19.064;2024-03-02T14:40:22;99939.66;;;21.97;36.86
86100;BME280;76724;47.496;19.064;2024-03-02T14:40:56;99935.06;;;21.98;37.33
86100;BME280;76724;47.496;19.064;2024-03-02T14:41:30;99933.44;;;21.96;37.26
86100;BME280;76724;47.496;19.064;2024-03-02T14:42:04;99933.44;;;21.96;36.64
86100;BME280;76724;47.496;19.064;2024-03-02T14:42:39;99928.88;;;21.97;37.47
86100;BME280;76724;47.496;19.064;2024-03-02T14:43:14;99928.06;;;21.96;37.46
86100;BME280;76724;47.496;19.064;2024-03-02T14:43:48;99926.44;;;21.95;37.23
86100;BME280;76724;47.496;19.064;2024-03-02T14:44:23;99935.88;;;21.98;37.32
86100;BME280;76724;47.496;19.064;2024-03-02T14:44:57;99928.88;;;21.97;37.54
86100;BME280;76724;47.496;19.064;2024-03-02T14:45:32;99935.06;;;21.98;37.50
86100;BME280;76724;47.496;19.064;2024-03-02T14:46:07;99929.69;;;21.98;37.55
86100;BME280;76724;47.496;19.064;2024-03-02T14:46:47;99926.97;;;21.98;37.12
86100;BME280;76724;47.496;19.064;2024-03-02T14:47:21;99932.38;;;21.98;37.00
86100;BME280;76724;47.496;19.064;2024-03-02T14:47:56;99930.50;;;21.98;37.27
86100;BME280;76724;47.496;19.064;2024-03-02T14:48:35;99925.34;;;21.96;37.28
86100;BME280;76724;47.496;19.064;2024-03-02T14:49:09;99939.41;;;21.99;36.64
86100;BME280;76724;47.496;19.064;2024-03-02T14:49:44;99937.78;;;21.98;37.22
86100;BME280;76724;47.496;19.064;2024-03-02T14:50:19;99935.06;;;21.98;36.71
86100;BME280;76724;47.496;19.064;2024-03-02T14:50:53;99935.06;;;21.98;37.34
86100;BME280;76724;47.496;19.064;2024-03-02T14:51:27;99936.97;;;21.97;36.59
86100;BME280;76724;47.496;19.064;2024-03-02T14:52:04;99927.78;;;21.98;36.78
86100;BME280;76724;47.496;19.064;2024-03-02T14:52:38;99929.69;;;21.98;36.81
86100;BME280;76724;47.496;19.064;2024-03-02T14:53:14;99935.06;;;21.98;37.15
86100;BME280;76724;47.496;19.064;2024-03-02T14:53:49;99931.56;;;21.97;37.24
86100;BME280;76724;47.496;19.064;2024-03-02T14:54:24;99931.56;;;21.97;36.74
86100;BME280;76724;47.496;19.064;2024-03-02T14:54:58;99929.69;;;21.98;37.36
86100;BME280;76724;47.496;19.064;2024-03-02T14:55:33;99930.75;;;21.96;37.07
86100;BME280;76724;47.496;19.064;2024-03-02T14:56:08;99931.56;;;21.97;36.83
86100;BME280;76724;47.496;19.064;2024-03-02T14:56:42;99933.19;;;21.98;36.72
86100;BME280;76724;47.496;19.064;2024-03-02T14:57:17;99929.69;;;21.98;37.53
86100;BME280;76724;47.496;19.064;2024-03-02T14:57:51;99926.16;;;21.97;37.33
86100;BME280;76724;47.496;19.064;2024-03-02T14:58:25;99933.44;;;21.96;37.11
86100;BME280;76724;47.496;19.064;2024-03-02T14:59:00;99932.38;;;21.98;37.28
86100;BME280;76724;47.496;19.064;2024-03-02T14:59:34;99935.06;;;21.98;37.07
86100;BME280;76724;47.496;19.064;2024-03-02T15:00:09;99931.28;;;21.99;36.81
86100;BME280;76724;47.496;19.064;2024-03-02T15:00:45;99936.69;;;21.99;36.71
86100;BME280;76724;47.496;19.064;2024-03-02T15:01:19;99926.97;;;21.98;37.54
86100;BME280;76724;47.496;19.064;2024-03-02T15:01:57;99931.56;;;21.97;36.57
86100;BME280;76724;47.496;19.064;2024-03-02T15:02:31;99928.06;;;21.96;36.78
86100;BME280;76724;47.496;19.064;2024-03-02T15:03:06;99929.69;;;21.98;36.62
86100;BME280;76724;47.496;19.064;2024-03-02T15:03:42;99935.06;;;21.98;37.11
86100;BME280;76724;47.496;19.064;2024-03-02T15:04:17;99935.06;;;21.98;36.58
86100;BME280;76724;47.496;19.064;2024-03-02T15:04:55;99935.88;;;21.98;36.68
86100;BME280;76724;47.496;19.064;2024-03-02T15:05:29;99935.06;;;21.98;37.06
86100;BME280;76724;47.496;19.064;2024-03-02T15:06:04;99941.28;;;21.98;37.04
86100;BME280;76724;47.496;19.064;2024-03-02T15:06:39;99933.44;;;21.96;36.98
86100;BME280;76724;47.496;19.064;2024-03-02T15:07:14;99933.44;;;21.96;36.86
86100;BME280;76724;47.496;19.064;2024-03-02T15:07:48;99940.47;;;21.98;37.16
86100;BME280;76724;47.496;19.064;2024-03-02T15:08:23;99935.88;;;21.98;37.06
86100;BME280;76724;47.496;19.064;2024-03-02T15:08:57;99938.03;;;21.96;37.00
86100;BME280;76724;47.496;19.064;2024-03-02T15:09:31;99929.94;;;21.96;37.11
86100;BME280;76724;47.496;19.064;2024-03-02T15:10:09;99936.16;;;21.96;36.93
86100;BME280;76724;47.496;19.064;2024-03-02T15:10:43;99930.75;;;21.96;37.07
86100;BME280;76724;47.496;19.064;2024-03-02T15:11:19;99933.69;;;21.95;37.18
86100;BME280;76724;47.496;19.064;2024-03-02T15:11:53;99934.25;;;21.97;36.66
86100;BME280;76724;47.496;19.064;2024-03-02T15:12:28;99927.25;;;21.96;36.89
86100;BME280;76724;47.496;19.064;2024-03-02T15:13:02;99934.53;;;21.95;37.04
86100;BME280;76724;47.496;19.064;2024-03-02T15:13:37;99929.13;;;21.95;36.63
86100;BME280;76724;47.496;19.064;2024-03-02T15:14:11;99929.13;;;21.95;37.40
86100;BME280;76724;47.496;19.064;2024-03-02T15:14:46;99928.88;;;21.97;37.05